Terminal Aerodrome Forecast
Issued by NWS Boston, MA

Home | Current Version | Previous Version | Text Only | Print | Product List | Glossary On
Versions: 1 2 3 4 5 6 7 8 9 10 11 12 13 14 15 16 17 18 19 20 21 22 23 24 25 26 27 28 29 30 31 32 33 34
000
FTUS41 KBOX 241120
TAFBOS
TAF
KBOS 241120Z 2412/2518 15010KT 6SM -SHRA OVC018
     FM241400 16014G28KT P6SM VCSH OVC040
     FM241600 16016G33KT P6SM VCSH OVC018 WS020/17040KT
     FM250000 17015G40KT 5SM SHRA OVC020 WS020/17045KT
     FM250700 17015G33KT 3SM SHRA BR OVC015
     FM251200 18009KT 3SM SHRA OVC015
     FM251700 19009KT P6SM SHRA OVC050=

USA.gov is the U.S. government's official web portal to all federal, state and local government web resources and services.